sensor_id;sensor_type;location;lat;lon;timestamp;P1;durP1;ratioP1;P2;durP2;ratioP2
5465;SDS011;2755;50.728;7.108;2022-12-07T00:01:21;27.20;;;15.40;;
5465;SDS011;2755;50.728;7.108;2022-12-07T00:03:52;28.20;;;16.10;;
5465;SDS011;2755;50.728;7.108;2022-12-07T00:06:22;31.27;;;15.73;;
5465;SDS011;2755;50.728;7.108;2022-12-07T00:08:48;35.03;;;18.07;;
5465;SDS011;2755;50.728;7.108;2022-12-07T00:11:18;33.23;;;17.17;;
5465;SDS011;2755;50.728;7.108;2022-12-07T00:13:46;34.80;;;18.97;;
5465;SDS011;2755;50.728;7.108;2022-12-07T00:16:13;27.67;;;15.80;;
5465;SDS011;2755;50.728;7.108;2022-12-07T00:18:40;32.67;;;16.97;;
5465;SDS011;2755;50.728;7.108;2022-12-07T00:21:08;28.60;;;15.40;;
5465;SDS011;2755;50.728;7.108;2022-12-07T00:23:35;32.10;;;17.47;;
5465;SDS011;2755;50.728;7.108;2022-12-07T00:26:08;35.53;;;18.17;;
5465;SDS011;2755;50.728;7.108;2022-12-07T00:28:35;30.53;;;17.27;;
5465;SDS011;2755;50.728;7.108;2022-12-07T00:31:05;37.80;;;19.50;;
5465;SDS011;2755;50.728;7.108;2022-12-07T00:33:35;32.47;;;16.83;;
5465;SDS011;2755;50.728;7.108;2022-12-07T00:36:02;30.67;;;16.27;;
5465;SDS011;2755;50.728;7.108;2022-12-07T00:38:30;23.90;;;13.73;;
5465;SDS011;2755;50.728;7.108;2022-12-07T00:40:58;35.20;;;17.13;;
5465;SDS011;2755;50.728;7.108;2022-12-07T00:43:25;31.43;;;16.87;;
5465;SDS011;2755;50.728;7.108;2022-12-07T00:45:51;34.17;;;18.47;;
5465;SDS011;2755;50.728;7.108;2022-12-07T00:48:17;34.60;;;17.17;;
5465;SDS011;2755;50.728;7.108;2022-12-07T00:50:43;27.93;;;15.97;;
5465;SDS011;2755;50.728;7.108;2022-12-07T00:53:08;26.00;;;15.50;;
5465;SDS011;2755;50.728;7.108;2022-12-07T00:55:34;31.70;;;16.50;;
5465;SDS011;2755;50.728;7.108;2022-12-07T00:58:00;31.00;;;16.53;;
5465;SDS011;2755;50.728;7.108;2022-12-07T01:00:26;33.63;;;16.40;;
5465;SDS011;2755;50.728;7.108;2022-12-07T01:02:52;30.17;;;17.03;;
5465;SDS011;2755;50.728;7.108;2022-12-07T01:05:18;32.80;;;17.63;;
5465;SDS011;2755;50.728;7.108;2022-12-07T01:07:43;40.27;;;18.17;;
5465;SDS011;2755;50.728;7.108;2022-12-07T01:10:11;32.17;;;18.93;;
5465;SDS011;2755;50.728;7.108;2022-12-07T01:12:37;35.07;;;19.10;;
5465;SDS011;2755;50.728;7.108;2022-12-07T01:15:03;29.30;;;17.27;;
5465;SDS011;2755;50.728;7.108;2022-12-07T01:17:29;34.17;;;19.90;;
5465;SDS011;2755;50.728;7.108;2022-12-07T01:19:54;32.97;;;19.47;;
5465;SDS011;2755;50.728;7.108;2022-12-07T01:22:20;41.37;;;20.00;;
5465;SDS011;2755;50.728;7.108;2022-12-07T01:24:46;40.60;;;19.33;;
5465;SDS011;2755;50.728;7.108;2022-12-07T01:27:12;30.10;;;17.13;;
5465;SDS011;2755;50.728;7.108;2022-12-07T01:29:38;34.17;;;18.07;;
5465;SDS011;2755;50.728;7.108;2022-12-07T01:32:04;38.67;;;20.20;;
5465;SDS011;2755;50.728;7.108;2022-12-07T01:34:29;39.97;;;20.70;;
5465;SDS011;2755;50.728;7.108;2022-12-07T01:36:55;37.23;;;21.00;;
5465;SDS011;2755;50.728;7.108;2022-12-07T01:39:22;40.13;;;21.90;;
5465;SDS011;2755;50.728;7.108;2022-12-07T01:41:48;29.97;;;17.43;;
5465;SDS011;2755;50.728;7.108;2022-12-07T01:46:40;34.57;;;19.80;;
5465;SDS011;2755;50.728;7.108;2022-12-07T01:49:08;40.27;;;21.40;;
5465;SDS011;2755;50.728;7.108;2022-12-07T01:51:39;36.70;;;21.20;;
5465;SDS011;2755;50.728;7.108;2022-12-07T01:54:07;38.53;;;20.50;;
5465;SDS011;2755;50.728;7.108;2022-12-07T01:56:34;35.40;;;19.73;;
5465;SDS011;2755;50.728;7.108;2022-12-07T01:59:02;32.50;;;18.73;;
5465;SDS011;2755;50.728;7.108;2022-12-07T02:01:27;37.73;;;20.47;;
5465;SDS011;2755;50.728;7.108;2022-12-07T02:03:53;49.80;;;22.47;;
5465;SDS011;2755;50.728;7.108;2022-12-07T02:06:21;41.67;;;21.10;;
5465;SDS011;2755;50.728;7.108;2022-12-07T02:08:49;36.17;;;20.43;;
5465;SDS011;2755;50.728;7.108;2022-12-07T02:11:15;34.93;;;20.70;;
5465;SDS011;2755;50.728;7.108;2022-12-07T02:13:41;38.70;;;21.80;;
5465;SDS011;2755;50.728;7.108;2022-12-07T02:16:16;40.53;;;21.67;;
5465;SDS011;2755;50.728;7.108;2022-12-07T02:18:45;41.73;;;22.33;;
5465;SDS011;2755;50.728;7.108;2022-12-07T02:21:32;40.57;;;20.97;;
5465;SDS011;2755;50.728;7.108;2022-12-07T02:25:08;37.60;;;20.40;;
5465;SDS011;2755;50.728;7.108;2022-12-07T02:29:50;46.07;;;23.67;;
5465;SDS011;2755;50.728;7.108;2022-12-07T02:32:36;43.90;;;23.00;;
5465;SDS011;2755;50.728;7.108;2022-12-07T02:40:35;43.47;;;23.90;;
5465;SDS011;2755;50.728;7.108;2022-12-07T02:43:14;44.63;;;23.80;;
5465;SDS011;2755;50.728;7.108;2022-12-07T02:45:48;49.27;;;23.10;;
5465;SDS011;2755;50.728;7.108;2022-12-07T02:48:17;42.00;;;23.17;;
5465;SDS011;2755;50.728;7.108;2022-12-07T02:50:48;42.70;;;22.83;;
5465;SDS011;2755;50.728;7.108;2022-12-07T03:03:53;47.07;;;20.63;;
5465;SDS011;2755;50.728;7.108;2022-12-07T03:06:40;46.53;;;20.17;;
5465;SDS011;2755;50.728;7.108;2022-12-07T03:09:13;31.83;;;19.60;;
5465;SDS011;2755;50.728;7.108;2022-12-07T03:11:47;43.67;;;22.73;;
5465;SDS011;2755;50.728;7.108;2022-12-07T03:16:55;36.00;;;22.00;;
5465;SDS011;2755;50.728;7.108;2022-12-07T03:19:23;42.50;;;23.70;;
5465;SDS011;2755;50.728;7.108;2022-12-07T03:21:53;45.20;;;22.10;;
5465;SDS011;2755;50.728;7.108;2022-12-07T03:24:49;47.33;;;22.13;;
5465;SDS011;2755;50.728;7.108;2022-12-07T03:27:19;37.80;;;20.70;;
5465;SDS011;2755;50.728;7.108;2022-12-07T03:30:07;40.70;;;22.60;;
5465;SDS011;2755;50.728;7.108;2022-12-07T03:32:42;45.67;;;22.77;;
5465;SDS011;2755;50.728;7.108;2022-12-07T03:42:44;44.10;;;21.07;;
5465;SDS011;2755;50.728;7.108;2022-12-07T03:45:10;36.23;;;20.70;;
5465;SDS011;2755;50.728;7.108;2022-12-07T03:48:11;35.83;;;20.23;;
5465;SDS011;2755;50.728;7.108;2022-12-07T03:50:32;33.30;;;19.33;;
5465;SDS011;2755;50.728;7.108;2022-12-07T03:53:11;47.27;;;21.03;;
5465;SDS011;2755;50.728;7.108;2022-12-07T03:55:42;36.13;;;20.47;;
5465;SDS011;2755;50.728;7.108;2022-12-07T03:58:10;39.97;;;22.43;;
5465;SDS011;2755;50.728;7.108;2022-12-07T04:00:41;37.30;;;21.40;;
5465;SDS011;2755;50.728;7.108;2022-12-07T04:03:07;42.80;;;20.47;;
5465;SDS011;2755;50.728;7.108;2022-12-07T04:05:33;38.63;;;21.07;;
5465;SDS011;2755;50.728;7.108;2022-12-07T04:07:59;40.20;;;22.20;;
5465;SDS011;2755;50.728;7.108;2022-12-07T04:10:25;37.90;;;22.60;;
5465;SDS011;2755;50.728;7.108;2022-12-07T04:12:51;45.37;;;22.80;;
5465;SDS011;2755;50.728;7.108;2022-12-07T04:15:17;37.47;;;21.93;;
5465;SDS011;2755;50.728;7.108;2022-12-07T04:17:42;43.27;;;23.30;;
5465;SDS011;2755;50.728;7.108;2022-12-07T04:20:08;51.97;;;25.20;;
5465;SDS011;2755;50.728;7.108;2022-12-07T04:22:34;43.30;;;21.97;;
5465;SDS011;2755;50.728;7.108;2022-12-07T04:25:00;40.00;;;22.90;;
5465;SDS011;2755;50.728;7.108;2022-12-07T04:27:26;41.80;;;20.57;;
5465;SDS011;2755;50.728;7.108;2022-12-07T04:29:51;44.03;;;22.30;;
5465;SDS011;2755;50.728;7.108;2022-12-07T04:32:17;40.57;;;22.33;;
5465;SDS011;2755;50.728;7.108;2022-12-07T04:34:42;43.83;;;24.17;;
5465;SDS011;2755;50.728;7.108;2022-12-07T04:37:08;50.80;;;24.53;;
5465;SDS011;2755;50.728;7.108;2022-12-07T04:39:34;43.80;;;23.63;;
5465;SDS011;2755;50.728;7.108;2022-12-07T04:42:00;40.10;;;22.07;;
5465;SDS011;2755;50.728;7.108;2022-12-07T04:44:26;48.90;;;25.73;;
5465;SDS011;2755;50.728;7.108;2022-12-07T04:46:53;41.47;;;23.13;;
5465;SDS011;2755;50.728;7.108;2022-12-07T04:49:19;44.73;;;21.53;;
5465;SDS011;2755;50.728;7.108;2022-12-07T04:51:45;40.57;;;22.23;;
5465;SDS011;2755;50.728;7.108;2022-12-07T04:54:12;48.67;;;24.23;;
5465;SDS011;2755;50.728;7.108;2022-12-07T04:56:39;51.83;;;26.90;;
5465;SDS011;2755;50.728;7.108;2022-12-07T04:59:04;50.87;;;26.03;;
5465;SDS011;2755;50.728;7.108;2022-12-07T05:01:30;46.90;;;24.13;;
5465;SDS011;2755;50.728;7.108;2022-12-07T05:03:57;42.83;;;23.10;;
5465;SDS011;2755;50.728;7.108;2022-12-07T05:06:23;42.17;;;21.23;;
5465;SDS011;2755;50.728;7.108;2022-12-07T05:08:49;41.23;;;21.90;;
5465;SDS011;2755;50.728;7.108;2022-12-07T05:11:15;47.07;;;23.20;;
5465;SDS011;2755;50.728;7.108;2022-12-07T05:14:00;41.80;;;22.13;;
5465;SDS011;2755;50.728;7.108;2022-12-07T05:16:26;37.33;;;21.73;;
5465;SDS011;2755;50.728;7.108;2022-12-07T05:18:52;42.20;;;22.10;;
5465;SDS011;2755;50.728;7.108;2022-12-07T05:21:18;43.83;;;20.73;;
5465;SDS011;2755;50.728;7.108;2022-12-07T05:23:43;52.47;;;22.60;;
5465;SDS011;2755;50.728;7.108;2022-12-07T05:26:09;42.63;;;20.90;;
5465;SDS011;2755;50.728;7.108;2022-12-07T05:28:35;46.47;;;22.37;;
5465;SDS011;2755;50.728;7.108;2022-12-07T05:31:01;46.10;;;20.87;;
5465;SDS011;2755;50.728;7.108;2022-12-07T05:33:26;41.13;;;21.43;;
5465;SDS011;2755;50.728;7.108;2022-12-07T05:35:52;34.63;;;19.57;;
5465;SDS011;2755;50.728;7.108;2022-12-07T05:38:17;35.57;;;19.90;;
5465;SDS011;2755;50.728;7.108;2022-12-07T05:40:43;44.63;;;20.63;;
5465;SDS011;2755;50.728;7.108;2022-12-07T05:43:08;43.33;;;20.50;;
5465;SDS011;2755;50.728;7.108;2022-12-07T05:45:35;50.57;;;22.30;;
5465;SDS011;2755;50.728;7.108;2022-12-07T05:48:01;47.53;;;21.60;;
5465;SDS011;2755;50.728;7.108;2022-12-07T05:50:27;47.60;;;21.40;;
5465;SDS011;2755;50.728;7.108;2022-12-07T05:52:53;52.13;;;20.70;;
5465;SDS011;2755;50.728;7.108;2022-12-07T05:55:18;40.30;;;19.40;;
5465;SDS011;2755;50.728;7.108;2022-12-07T05:57:44;43.07;;;20.97;;
5465;SDS011;2755;50.728;7.108;2022-12-07T06:00:30;45.33;;;20.73;;
5465;SDS011;2755;50.728;7.108;2022-12-07T06:02:55;43.63;;;21.20;;
5465;SDS011;2755;50.728;7.108;2022-12-07T06:05:21;37.87;;;20.60;;
5465;SDS011;2755;50.728;7.108;2022-12-07T06:07:47;43.60;;;19.60;;
5465;SDS011;2755;50.728;7.108;2022-12-07T06:10:13;48.43;;;21.70;;
5465;SDS011;2755;50.728;7.108;2022-12-07T06:12:38;41.33;;;20.30;;
5465;SDS011;2755;50.728;7.108;2022-12-07T06:15:07;38.27;;;20.60;;
5465;SDS011;2755;50.728;7.108;2022-12-07T06:17:34;39.17;;;19.47;;
5465;SDS011;2755;50.728;7.108;2022-12-07T06:19:59;44.23;;;21.57;;
5465;SDS011;2755;50.728;7.108;2022-12-07T06:22:25;41.07;;;20.77;;
5465;SDS011;2755;50.728;7.108;2022-12-07T06:24:51;56.03;;;22.90;;
5465;SDS011;2755;50.728;7.108;2022-12-07T06:27:17;44.93;;;22.43;;
5465;SDS011;2755;50.728;7.108;2022-12-07T06:29:43;46.00;;;22.10;;
5465;SDS011;2755;50.728;7.108;2022-12-07T06:32:08;42.57;;;20.80;;
5465;SDS011;2755;50.728;7.108;2022-12-07T06:34:34;47.13;;;22.57;;
5465;SDS011;2755;50.728;7.108;2022-12-07T06:37:00;55.23;;;24.80;;
5465;SDS011;2755;50.728;7.108;2022-12-07T06:39:27;40.60;;;21.97;;
5465;SDS011;2755;50.728;7.108;2022-12-07T06:41:53;35.57;;;19.77;;
5465;SDS011;2755;50.728;7.108;2022-12-07T06:44:19;41.23;;;19.63;;
5465;SDS011;2755;50.728;7.108;2022-12-07T06:46:46;35.23;;;18.27;;
5465;SDS011;2755;50.728;7.108;2022-12-07T06:49:12;49.10;;;21.33;;
5465;SDS011;2755;50.728;7.108;2022-12-07T06:51:38;35.47;;;19.30;;
5465;SDS011;2755;50.728;7.108;2022-12-07T06:54:07;38.93;;;18.80;;
5465;SDS011;2755;50.728;7.108;2022-12-07T06:56:37;37.80;;;18.73;;
5465;SDS011;2755;50.728;7.108;2022-12-07T06:59:03;40.53;;;20.03;;
5465;SDS011;2755;50.728;7.108;2022-12-07T07:01:31;37.77;;;18.60;;
5465;SDS011;2755;50.728;7.108;2022-12-07T07:03:57;36.50;;;19.37;;
5465;SDS011;2755;50.728;7.108;2022-12-07T07:06:23;30.43;;;16.30;;
5465;SDS011;2755;50.728;7.108;2022-12-07T07:08:49;36.20;;;18.40;;
5465;SDS011;2755;50.728;7.108;2022-12-07T07:11:15;38.63;;;18.57;;
5465;SDS011;2755;50.728;7.108;2022-12-07T07:13:42;41.27;;;17.40;;
5465;SDS011;2755;50.728;7.108;2022-12-07T07:16:07;41.50;;;18.13;;
5465;SDS011;2755;50.728;7.108;2022-12-07T07:18:33;33.10;;;16.33;;
5465;SDS011;2755;50.728;7.108;2022-12-07T07:20:59;34.83;;;16.83;;
5465;SDS011;2755;50.728;7.108;2022-12-07T07:23:26;34.53;;;16.40;;
5465;SDS011;2755;50.728;7.108;2022-12-07T07:25:52;28.83;;;14.00;;
5465;SDS011;2755;50.728;7.108;2022-12-07T07:28:18;37.00;;;16.13;;
5465;SDS011;2755;50.728;7.108;2022-12-07T07:30:44;25.20;;;14.20;;
5465;SDS011;2755;50.728;7.108;2022-12-07T07:33:10;26.60;;;13.60;;
5465;SDS011;2755;50.728;7.108;2022-12-07T07:35:36;25.47;;;12.20;;
5465;SDS011;2755;50.728;7.108;2022-12-07T07:38:02;24.83;;;12.40;;
5465;SDS011;2755;50.728;7.108;2022-12-07T07:40:29;27.33;;;12.23;;
5465;SDS011;2755;50.728;7.108;2022-12-07T07:42:55;21.03;;;12.53;;
5465;SDS011;2755;50.728;7.108;2022-12-07T07:45:22;25.13;;;11.07;;
5465;SDS011;2755;50.728;7.108;2022-12-07T07:47:48;21.03;;;11.50;;
5465;SDS011;2755;50.728;7.108;2022-12-07T07:50:14;20.70;;;12.20;;
5465;SDS011;2755;50.728;7.108;2022-12-07T07:52:41;33.60;;;15.10;;
5465;SDS011;2755;50.728;7.108;2022-12-07T07:55:07;31.43;;;15.67;;
5465;SDS011;2755;50.728;7.108;2022-12-07T07:57:36;35.10;;;17.23;;
5465;SDS011;2755;50.728;7.108;2022-12-07T08:00:04;24.60;;;14.30;;
5465;SDS011;2755;50.728;7.108;2022-12-07T08:02:31;34.37;;;18.10;;
5465;SDS011;2755;50.728;7.108;2022-12-07T08:04:57;35.43;;;16.40;;
5465;SDS011;2755;50.728;7.108;2022-12-07T08:07:23;28.53;;;15.33;;
5465;SDS011;2755;50.728;7.108;2022-12-07T08:09:49;29.53;;;14.03;;
5465;SDS011;2755;50.728;7.108;2022-12-07T08:12:15;35.43;;;16.70;;
5465;SDS011;2755;50.728;7.108;2022-12-07T08:14:41;36.83;;;17.90;;
5465;SDS011;2755;50.728;7.108;2022-12-07T08:17:07;38.10;;;18.23;;
5465;SDS011;2755;50.728;7.108;2022-12-07T08:19:33;36.03;;;19.00;;
5465;SDS011;2755;50.728;7.108;2022-12-07T08:21:59;36.90;;;17.53;;
5465;SDS011;2755;50.728;7.108;2022-12-07T08:24:25;34.20;;;16.13;;
5465;SDS011;2755;50.728;7.108;2022-12-07T08:26:51;38.23;;;18.37;;
5465;SDS011;2755;50.728;7.108;2022-12-07T08:29:17;34.77;;;17.70;;
5465;SDS011;2755;50.728;7.108;2022-12-07T08:31:43;34.30;;;17.77;;
5465;SDS011;2755;50.728;7.108;2022-12-07T08:34:10;32.73;;;17.77;;
5465;SDS011;2755;50.728;7.108;2022-12-07T08:36:36;43.27;;;18.47;;
5465;SDS011;2755;50.728;7.108;2022-12-07T08:39:02;34.07;;;18.00;;
5465;SDS011;2755;50.728;7.108;2022-12-07T08:41:28;39.93;;;17.57;;
5465;SDS011;2755;50.728;7.108;2022-12-07T08:43:54;33.10;;;16.20;;
5465;SDS011;2755;50.728;7.108;2022-12-07T08:48:52;29.90;;;16.10;;
5465;SDS011;2755;50.728;7.108;2022-12-07T08:51:22;41.03;;;18.10;;
5465;SDS011;2755;50.728;7.108;2022-12-07T08:53:48;38.23;;;16.77;;
5465;SDS011;2755;50.728;7.108;2022-12-07T08:56:15;33.73;;;16.00;;
5465;SDS011;2755;50.728;7.108;2022-12-07T08:58:41;27.30;;;15.67;;
5465;SDS011;2755;50.728;7.108;2022-12-07T09:01:07;24.20;;;13.90;;
5465;SDS011;2755;50.728;7.108;2022-12-07T09:03:33;30.00;;;16.50;;
5465;SDS011;2755;50.728;7.108;2022-12-07T09:05:59;33.50;;;15.93;;
5465;SDS011;2755;50.728;7.108;2022-12-07T09:08:31;33.30;;;15.50;;
5465;SDS011;2755;50.728;7.108;2022-12-07T09:10:58;30.10;;;14.77;;
5465;SDS011;2755;50.728;7.108;2022-12-07T09:13:24;35.93;;;15.50;;
5465;SDS011;2755;50.728;7.108;2022-12-07T09:15:50;33.03;;;16.57;;
5465;SDS011;2755;50.728;7.108;2022-12-07T09:18:16;32.07;;;14.10;;
5465;SDS011;2755;50.728;7.108;2022-12-07T09:20:42;33.10;;;15.10;;
5465;SDS011;2755;50.728;7.108;2022-12-07T09:23:08;32.83;;;14.87;;
5465;SDS011;2755;50.728;7.108;2022-12-07T09:25:34;23.43;;;14.13;;
5465;SDS011;2755;50.728;7.108;2022-12-07T09:28:00;27.83;;;13.90;;
5465;SDS011;2755;50.728;7.108;2022-12-07T09:30:27;28.30;;;14.30;;
5465;SDS011;2755;50.728;7.108;2022-12-07T09:32:53;27.53;;;14.13;;
5465;SDS011;2755;50.728;7.108;2022-12-07T09:35:20;27.43;;;14.33;;
5465;SDS011;2755;50.728;7.108;2022-12-07T09:37:46;25.10;;;12.57;;
5465;SDS011;2755;50.728;7.108;2022-12-07T09:40:13;27.40;;;12.97;;
5465;SDS011;2755;50.728;7.108;2022-12-07T09:42:41;25.30;;;12.60;;
5465;SDS011;2755;50.728;7.108;2022-12-07T09:45:17;30.50;;;12.50;;
5465;SDS011;2755;50.728;7.108;2022-12-07T09:48:15;30.00;;;12.17;;
5465;SDS011;2755;50.728;7.108;2022-12-07T09:50:44;21.90;;;11.87;;
5465;SDS011;2755;50.728;7.108;2022-12-07T09:53:18;24.90;;;11.97;;
5465;SDS011;2755;50.728;7.108;2022-12-07T09:55:50;26.63;;;11.53;;
5465;SDS011;2755;50.728;7.108;2022-12-07T09:58:20;22.17;;;11.27;;
5465;SDS011;2755;50.728;7.108;2022-12-07T10:00:49;20.80;;;10.23;;
5465;SDS011;2755;50.728;7.108;2022-12-07T10:03:18;24.30;;;9.80;;
5465;SDS011;2755;50.728;7.108;2022-12-07T10:05:45;19.70;;;9.17;;
5465;SDS011;2755;50.728;7.108;2022-12-07T10:08:13;15.60;;;9.77;;
5465;SDS011;2755;50.728;7.108;2022-12-07T10:10:42;18.87;;;9.70;;
5465;SDS011;2755;50.728;7.108;2022-12-07T10:13:18;17.57;;;8.30;;
5465;SDS011;2755;50.728;7.108;2022-12-07T10:15:56;14.63;;;9.43;;
5465;SDS011;2755;50.728;7.108;2022-12-07T10:18:25;19.63;;;9.33;;
5465;SDS011;2755;50.728;7.108;2022-12-07T10:21:00;14.23;;;7.90;;
5465;SDS011;2755;50.728;7.108;2022-12-07T10:23:27;15.67;;;8.50;;
5465;SDS011;2755;50.728;7.108;2022-12-07T10:25:53;13.33;;;7.40;;
5465;SDS011;2755;50.728;7.108;2022-12-07T10:28:20;15.87;;;7.77;;
5465;SDS011;2755;50.728;7.108;2022-12-07T10:35:59;17.20;;;7.63;;
5465;SDS011;2755;50.728;7.108;2022-12-07T10:38:26;11.90;;;6.77;;
5465;SDS011;2755;50.728;7.108;2022-12-07T10:41:05;17.97;;;7.50;;
5465;SDS011;2755;50.728;7.108;2022-12-07T10:43:32;11.57;;;6.30;;
5465;SDS011;2755;50.728;7.108;2022-12-07T10:49:16;15.43;;;7.03;;
5465;SDS011;2755;50.728;7.108;2022-12-07T10:51:59;15.70;;;7.30;;
5465;SDS011;2755;50.728;7.108;2022-12-07T11:00:21;16.73;;;6.77;;
5465;SDS011;2755;50.728;7.108;2022-12-07T11:10:44;9.07;;;6.13;;
5465;SDS011;2755;50.728;7.108;2022-12-07T11:13:25;9.83;;;5.80;;
5465;SDS011;2755;50.728;7.108;2022-12-07T11:16:14;10.87;;;6.70;;
5465;SDS011;2755;50.728;7.108;2022-12-07T11:18:53;15.00;;;7.43;;
5465;SDS011;2755;50.728;7.108;2022-12-07T11:24:17;12.80;;;5.90;;
5465;SDS011;2755;50.728;7.108;2022-12-07T11:30:03;13.10;;;5.67;;
5465;SDS011;2755;50.728;7.108;2022-12-07T11:32:22;8.00;;;5.40;;
5465;SDS011;2755;50.728;7.108;2022-12-07T11:37:21;6.77;;;4.30;;
5465;SDS011;2755;50.728;7.108;2022-12-07T11:40:03;12.17;;;5.43;;
5465;SDS011;2755;50.728;7.108;2022-12-07T11:42:57;10.20;;;5.10;;
5465;SDS011;2755;50.728;7.108;2022-12-07T11:45:30;9.40;;;4.90;;
5465;SDS011;2755;50.728;7.108;2022-12-07T11:48:06;8.77;;;4.60;;
5465;SDS011;2755;50.728;7.108;2022-12-07T11:50:57;8.63;;;4.20;;
5465;SDS011;2755;50.728;7.108;2022-12-07T11:56:09;9.87;;;4.80;;
5465;SDS011;2755;50.728;7.108;2022-12-07T11:58:42;8.30;;;4.03;;
5465;SDS011;2755;50.728;7.108;2022-12-07T12:03:50;10.37;;;4.20;;
5465;SDS011;2755;50.728;7.108;2022-12-07T12:06:32;10.27;;;3.60;;
5465;SDS011;2755;50.728;7.108;2022-12-07T12:22:28;14.67;;;4.80;;
5465;SDS011;2755;50.728;7.108;2022-12-07T12:25:07;12.53;;;4.57;;
5465;SDS011;2755;50.728;7.108;2022-12-07T12:27:52;9.90;;;4.73;;
5465;SDS011;2755;50.728;7.108;2022-12-07T12:32:50;12.73;;;4.33;;
5465;SDS011;2755;50.728;7.108;2022-12-07T12:37:48;10.60;;;5.17;;
5465;SDS011;2755;50.728;7.108;2022-12-07T12:42:58;12.00;;;5.27;;
5465;SDS011;2755;50.728;7.108;2022-12-07T12:47:53;7.37;;;5.07;;
5465;SDS011;2755;50.728;7.108;2022-12-07T12:52:51;10.67;;;4.63;;
5465;SDS011;2755;50.728;7.108;2022-12-07T13:00:44;9.93;;;5.30;;
5465;SDS011;2755;50.728;7.108;2022-12-07T13:03:29;14.90;;;5.50;;
5465;SDS011;2755;50.728;7.108;2022-12-07T13:08:56;12.00;;;5.63;;
5465;SDS011;2755;50.728;7.108;2022-12-07T13:11:43;10.83;;;5.13;;
5465;SDS011;2755;50.728;7.108;2022-12-07T13:20:00;28.93;;;6.23;;
5465;SDS011;2755;50.728;7.108;2022-12-07T13:24:59;13.23;;;5.60;;
5465;SDS011;2755;50.728;7.108;2022-12-07T13:27:54;14.83;;;6.37;;
5465;SDS011;2755;50.728;7.108;2022-12-07T13:30:35;8.83;;;5.97;;
5465;SDS011;2755;50.728;7.108;2022-12-07T13:33:08;12.40;;;6.20;;
5465;SDS011;2755;50.728;7.108;2022-12-07T13:35:35;10.83;;;6.30;;
5465;SDS011;2755;50.728;7.108;2022-12-07T13:38:50;16.47;;;6.70;;
5465;SDS011;2755;50.728;7.108;2022-12-07T13:41:00;12.37;;;6.90;;
5465;SDS011;2755;50.728;7.108;2022-12-07T13:43:27;17.60;;;6.90;;
5465;SDS011;2755;50.728;7.108;2022-12-07T13:45:57;12.83;;;6.20;;
5465;SDS011;2755;50.728;7.108;2022-12-07T13:48:30;16.77;;;7.50;;
5465;SDS011;2755;50.728;7.108;2022-12-07T13:51:16;16.30;;;7.23;;
5465;SDS011;2755;50.728;7.108;2022-12-07T13:53:47;16.53;;;7.57;;
5465;SDS011;2755;50.728;7.108;2022-12-07T13:56:14;11.83;;;7.00;;
5465;SDS011;2755;50.728;7.108;2022-12-07T13:58:41;24.77;;;8.03;;
5465;SDS011;2755;50.728;7.108;2022-12-07T14:01:07;9.83;;;5.43;;
5465;SDS011;2755;50.728;7.108;2022-12-07T14:03:34;13.90;;;5.90;;
5465;SDS011;2755;50.728;7.108;2022-12-07T14:08:39;10.43;;;5.47;;
5465;SDS011;2755;50.728;7.108;2022-12-07T14:11:05;9.60;;;5.63;;
5465;SDS011;2755;50.728;7.108;2022-12-07T14:13:33;13.10;;;4.30;;
5465;SDS011;2755;50.728;7.108;2022-12-07T14:16:01;8.27;;;4.60;;
5465;SDS011;2755;50.728;7.108;2022-12-07T14:18:38;6.00;;;3.37;;
5465;SDS011;2755;50.728;7.108;2022-12-07T14:21:06;11.23;;;4.00;;
5465;SDS011;2755;50.728;7.108;2022-12-07T14:23:39;8.37;;;4.17;;
5465;SDS011;2755;50.728;7.108;2022-12-07T14:26:13;13.00;;;4.10;;
5465;SDS011;2755;50.728;7.108;2022-12-07T14:28:40;8.17;;;3.93;;
5465;SDS011;2755;50.728;7.108;2022-12-07T14:31:11;9.50;;;3.80;;
5465;SDS011;2755;50.728;7.108;2022-12-07T14:33:37;5.07;;;2.77;;
5465;SDS011;2755;50.728;7.108;2022-12-07T14:36:03;8.73;;;2.83;;
5465;SDS011;2755;50.728;7.108;2022-12-07T14:38:29;3.90;;;2.20;;
5465;SDS011;2755;50.728;7.108;2022-12-07T14:40:55;3.33;;;2.17;;
5465;SDS011;2755;50.728;7.108;2022-12-07T14:43:42;3.93;;;2.80;;
5465;SDS011;2755;50.728;7.108;2022-12-07T14:46:08;4.00;;;2.70;;
5465;SDS011;2755;50.728;7.108;2022-12-07T14:48:34;5.37;;;2.87;;
5465;SDS011;2755;50.728;7.108;2022-12-07T14:51:00;11.10;;;2.90;;
5465;SDS011;2755;50.728;7.108;2022-12-07T14:53:37;5.80;;;2.50;;
5465;SDS011;2755;50.728;7.108;2022-12-07T14:56:09;6.77;;;3.53;;
5465;SDS011;2755;50.728;7.108;2022-12-07T14:58:35;5.90;;;3.03;;
5465;SDS011;2755;50.728;7.108;2022-12-07T15:01:01;10.00;;;3.20;;
5465;SDS011;2755;50.728;7.108;2022-12-07T15:03:27;4.00;;;3.40;;
5465;SDS011;2755;50.728;7.108;2022-12-07T15:05:53;3.97;;;3.30;;
5465;SDS011;2755;50.728;7.108;2022-12-07T15:08:19;4.33;;;3.50;;
5465;SDS011;2755;50.728;7.108;2022-12-07T15:10:45;5.50;;;2.80;;
5465;SDS011;2755;50.728;7.108;2022-12-07T15:13:11;10.07;;;4.50;;
5465;SDS011;2755;50.728;7.108;2022-12-07T15:15:56;3.77;;;3.07;;
5465;SDS011;2755;50.728;7.108;2022-12-07T15:18:23;7.67;;;3.30;;
5465;SDS011;2755;50.728;7.108;2022-12-07T15:20:51;11.87;;;5.33;;
5465;SDS011;2755;50.728;7.108;2022-12-07T15:23:17;7.90;;;5.10;;
5465;SDS011;2755;50.728;7.108;2022-12-07T15:25:44;7.10;;;4.13;;
5465;SDS011;2755;50.728;7.108;2022-12-07T15:28:12;7.50;;;5.60;;
5465;SDS011;2755;50.728;7.108;2022-12-07T15:30:39;8.77;;;5.37;;
5465;SDS011;2755;50.728;7.108;2022-12-07T15:33:08;10.77;;;5.20;;
5465;SDS011;2755;50.728;7.108;2022-12-07T15:35:38;8.87;;;4.10;;
5465;SDS011;2755;50.728;7.108;2022-12-07T15:38:07;6.67;;;4.10;;
5465;SDS011;2755;50.728;7.108;2022-12-07T15:40:33;8.30;;;5.20;;
5465;SDS011;2755;50.728;7.108;2022-12-07T15:43:00;8.57;;;4.80;;
5465;SDS011;2755;50.728;7.108;2022-12-07T15:45:26;7.33;;;4.57;;
5465;SDS011;2755;50.728;7.108;2022-12-07T15:47:52;10.00;;;6.27;;
5465;SDS011;2755;50.728;7.108;2022-12-07T15:50:20;9.83;;;5.80;;
5465;SDS011;2755;50.728;7.108;2022-12-07T15:52:46;13.30;;;5.90;;
5465;SDS011;2755;50.728;7.108;2022-12-07T15:55:12;8.07;;;5.60;;
5465;SDS011;2755;50.728;7.108;2022-12-07T15:57:38;15.47;;;6.77;;
5465;SDS011;2755;50.728;7.108;2022-12-07T16:00:05;12.93;;;6.40;;
5465;SDS011;2755;50.728;7.108;2022-12-07T16:02:32;12.37;;;4.60;;
5465;SDS011;2755;50.728;7.108;2022-12-07T16:04:58;12.60;;;6.83;;
5465;SDS011;2755;50.728;7.108;2022-12-07T16:07:24;20.20;;;7.40;;
5465;SDS011;2755;50.728;7.108;2022-12-07T16:09:50;16.70;;;7.60;;
5465;SDS011;2755;50.728;7.108;2022-12-07T16:12:16;9.90;;;6.33;;
5465;SDS011;2755;50.728;7.108;2022-12-07T16:14:42;8.30;;;6.00;;
5465;SDS011;2755;50.728;7.108;2022-12-07T16:17:08;9.67;;;5.67;;
5465;SDS011;2755;50.728;7.108;2022-12-07T16:19:34;9.83;;;5.50;;
5465;SDS011;2755;50.728;7.108;2022-12-07T16:22:00;14.90;;;6.07;;
5465;SDS011;2755;50.728;7.108;2022-12-07T16:24:26;10.20;;;6.17;;
5465;SDS011;2755;50.728;7.108;2022-12-07T16:26:52;7.60;;;6.80;;
5465;SDS011;2755;50.728;7.108;2022-12-07T16:29:19;15.77;;;8.20;;
5465;SDS011;2755;50.728;7.108;2022-12-07T16:31:46;13.00;;;6.83;;
5465;SDS011;2755;50.728;7.108;2022-12-07T16:34:12;9.73;;;6.33;;
5465;SDS011;2755;50.728;7.108;2022-12-07T16:36:38;10.83;;;7.40;;
5465;SDS011;2755;50.728;7.108;2022-12-07T16:39:04;11.60;;;7.17;;
5465;SDS011;2755;50.728;7.108;2022-12-07T16:41:31;10.80;;;7.40;;
5465;SDS011;2755;50.728;7.108;2022-12-07T16:43:57;7.37;;;5.73;;
5465;SDS011;2755;50.728;7.108;2022-12-07T16:46:23;17.30;;;6.20;;
5465;SDS011;2755;50.728;7.108;2022-12-07T16:48:49;10.70;;;7.30;;
5465;SDS011;2755;50.728;7.108;2022-12-07T16:51:15;12.43;;;6.80;;
5465;SDS011;2755;50.728;7.108;2022-12-07T16:53:41;10.10;;;6.10;;
5465;SDS011;2755;50.728;7.108;2022-12-07T16:56:11;8.40;;;5.90;;
5465;SDS011;2755;50.728;7.108;2022-12-07T16:58:38;11.47;;;6.37;;
5465;SDS011;2755;50.728;7.108;2022-12-07T17:01:11;12.40;;;7.03;;